sensor_id;sensor_type;location;lat;lon;timestamp;temperature;humidity
20045;DHT22;10183;47.808;9.476;2022-11-15T00:00:53;4.10;99.90
20045;DHT22;10183;47.808;9.476;2022-11-15T00:03:21;4.10;99.90
20045;DHT22;10183;47.808;9.476;2022-11-15T00:05:48;4.10;99.90
20045;DHT22;10183;47.808;9.476;2022-11-15T00:08:14;4.10;99.90
20045;DHT22;10183;47.808;9.476;2022-11-15T00:10:41;4.10;99.90
20045;DHT22;10183;47.808;9.476;2022-11-15T00:13:12;4.00;99.90
20045;DHT22;10183;47.808;9.476;2022-11-15T00:15:40;3.90;99.90
20045;DHT22;10183;47.808;9.476;2022-11-15T00:18:14;3.90;99.90
20045;DHT22;10183;47.808;9.476;2022-11-15T00:20:40;3.80;99.90
20045;DHT22;10183;47.808;9.476;2022-11-15T00:23:07;3.70;99.90
20045;DHT22;10183;47.808;9.476;2022-11-15T00:25:34;3.60;99.90
20045;DHT22;10183;47.808;9.476;2022-11-15T00:28:00;3.60;99.90
20045;DHT22;10183;47.808;9.476;2022-11-15T00:30:27;3.50;99.90
20045;DHT22;10183;47.808;9.476;2022-11-15T00:32:54;3.50;99.90
20045;DHT22;10183;47.808;9.476;2022-11-15T00:35:20;3.50;99.90
20045;DHT22;10183;47.808;9.476;2022-11-15T00:37:47;3.50;99.90
20045;DHT22;10183;47.808;9.476;2022-11-15T00:40:15;3.50;99.90
20045;DHT22;10183;47.808;9.476;2022-11-15T00:42:41;3.40;99.90
20045;DHT22;10183;47.808;9.476;2022-11-15T00:45:08;3.50;99.90
20045;DHT22;10183;47.808;9.476;2022-11-15T00:47:35;3.50;99.90
20045;DHT22;10183;47.808;9.476;2022-11-15T00:50:01;3.40;99.90
20045;DHT22;10183;47.808;9.476;2022-11-15T00:52:27;3.50;99.90
20045;DHT22;10183;47.808;9.476;2022-11-15T00:54:53;3.50;99.90
20045;DHT22;10183;47.808;9.476;2022-11-15T00:57:19;3.50;99.90
20045;DHT22;10183;47.808;9.476;2022-11-15T00:59:46;3.50;99.90
20045;DHT22;10183;47.808;9.476;2022-11-15T01:02:12;3.40;99.90
20045;DHT22;10183;47.808;9.476;2022-11-15T01:04:38;3.30;99.90
20045;DHT22;10183;47.808;9.476;2022-11-15T01:07:05;3.20;99.90
20045;DHT22;10183;47.808;9.476;2022-11-15T01:09:31;3.10;99.90
20045;DHT22;10183;47.808;9.476;2022-11-15T01:11:57;2.90;99.90
20045;DHT22;10183;47.808;9.476;2022-11-15T01:14:23;3.00;99.90
20045;DHT22;10183;47.808;9.476;2022-11-15T01:16:49;2.90;99.90
20045;DHT22;10183;47.808;9.476;2022-11-15T01:19:15;2.90;99.90
20045;DHT22;10183;47.808;9.476;2022-11-15T01:21:42;2.90;99.90
20045;DHT22;10183;47.808;9.476;2022-11-15T01:24:11;3.00;99.90
20045;DHT22;10183;47.808;9.476;2022-11-15T01:26:38;3.00;99.90
20045;DHT22;10183;47.808;9.476;2022-11-15T01:29:04;2.90;99.90
20045;DHT22;10183;47.808;9.476;2022-11-15T01:31:30;2.90;99.90
20045;DHT22;10183;47.808;9.476;2022-11-15T01:33:56;2.80;99.90
20045;DHT22;10183;47.808;9.476;2022-11-15T01:36:23;2.80;99.90
20045;DHT22;10183;47.808;9.476;2022-11-15T01:38:56;2.90;99.90
20045;DHT22;10183;47.808;9.476;2022-11-15T01:41:26;2.80;99.90
20045;DHT22;10183;47.808;9.476;2022-11-15T01:43:57;2.70;99.90
20045;DHT22;10183;47.808;9.476;2022-11-15T01:46:44;2.60;99.90
20045;DHT22;10183;47.808;9.476;2022-11-15T01:49:14;2.60;99.90
20045;DHT22;10183;47.808;9.476;2022-11-15T01:51:41;2.70;99.90
20045;DHT22;10183;47.808;9.476;2022-11-15T01:54:13;2.60;99.90
20045;DHT22;10183;47.808;9.476;2022-11-15T01:56:46;2.60;99.90
20045;DHT22;10183;47.808;9.476;2022-11-15T01:59:14;2.60;99.90
20045;DHT22;10183;47.808;9.476;2022-11-15T02:01:41;2.70;99.90
20045;DHT22;10183;47.808;9.476;2022-11-15T02:06:38;2.20;99.90
20045;DHT22;10183;47.808;9.476;2022-11-15T02:09:05;2.40;99.90
20045;DHT22;10183;47.808;9.476;2022-11-15T02:11:32;2.40;99.90
20045;DHT22;10183;47.808;9.476;2022-11-15T02:13:59;2.40;99.90
20045;DHT22;10183;47.808;9.476;2022-11-15T02:28:10;2.80;99.90
20045;DHT22;10183;47.808;9.476;2022-11-15T02:30:45;2.80;99.90
20045;DHT22;10183;47.808;9.476;2022-11-15T02:33:41;2.80;99.90
20045;DHT22;10183;47.808;9.476;2022-11-15T02:36:36;2.70;99.90
20045;DHT22;10183;47.808;9.476;2022-11-15T02:41:50;2.70;99.90
20045;DHT22;10183;47.808;9.476;2022-11-15T02:44:26;2.70;99.90
20045;DHT22;10183;47.808;9.476;2022-11-15T02:47:02;2.90;99.90
20045;DHT22;10183;47.808;9.476;2022-11-15T02:49:41;3.10;99.90
20045;DHT22;10183;47.808;9.476;2022-11-15T02:52:13;3.20;99.90
20045;DHT22;10183;47.808;9.476;2022-11-15T02:54:40;3.20;99.90
20045;DHT22;10183;47.808;9.476;2022-11-15T02:57:12;3.30;99.90
20045;DHT22;10183;47.808;9.476;2022-11-15T03:08:10;2.70;99.90
20045;DHT22;10183;47.808;9.476;2022-11-15T03:19:06;2.70;99.90
20045;DHT22;10183;47.808;9.476;2022-11-15T03:21:33;2.80;99.90
20045;DHT22;10183;47.808;9.476;2022-11-15T03:24:03;2.80;99.90
20045;DHT22;10183;47.808;9.476;2022-11-15T03:26:33;2.90;99.90
20045;DHT22;10183;47.808;9.476;2022-11-15T03:29:04;3.00;99.90
20045;DHT22;10183;47.808;9.476;2022-11-15T03:31:36;3.10;99.90
20045;DHT22;10183;47.808;9.476;2022-11-15T03:34:29;3.00;99.90
20045;DHT22;10183;47.808;9.476;2022-11-15T03:36:57;2.90;99.90
20045;DHT22;10183;47.808;9.476;2022-11-15T03:39:24;2.80;99.90
20045;DHT22;10183;47.808;9.476;2022-11-15T03:42:01;2.60;99.90
20045;DHT22;10183;47.808;9.476;2022-11-15T03:45:02;2.70;99.90
20045;DHT22;10183;47.808;9.476;2022-11-15T03:47:34;2.70;99.90
20045;DHT22;10183;47.808;9.476;2022-11-15T03:50:11;2.80;99.90
20045;DHT22;10183;47.808;9.476;2022-11-15T03:52:39;2.80;99.90
20045;DHT22;10183;47.808;9.476;2022-11-15T03:55:10;2.80;99.90
20045;DHT22;10183;47.808;9.476;2022-11-15T03:57:37;2.90;99.90
20045;DHT22;10183;47.808;9.476;2022-11-15T04:00:04;3.00;99.90
20045;DHT22;10183;47.808;9.476;2022-11-15T04:02:30;3.10;99.90
20045;DHT22;10183;47.808;9.476;2022-11-15T04:04:56;3.20;99.90
20045;DHT22;10183;47.808;9.476;2022-11-15T04:07:22;3.20;99.90
20045;DHT22;10183;47.808;9.476;2022-11-15T04:09:49;2.90;99.90
20045;DHT22;10183;47.808;9.476;2022-11-15T04:12:36;3.00;99.90
20045;DHT22;10183;47.808;9.476;2022-11-15T04:15:09;3.20;99.90
20045;DHT22;10183;47.808;9.476;2022-11-15T04:17:52;3.30;99.90
20045;DHT22;10183;47.808;9.476;2022-11-15T04:20:20;3.30;99.90
20045;DHT22;10183;47.808;9.476;2022-11-15T04:23:11;3.40;99.90
20045;DHT22;10183;47.808;9.476;2022-11-15T04:25:57;3.40;99.90
20045;DHT22;10183;47.808;9.476;2022-11-15T04:28:24;3.50;99.90
20045;DHT22;10183;47.808;9.476;2022-11-15T04:30:50;3.60;99.90
20045;DHT22;10183;47.808;9.476;2022-11-15T04:33:16;3.70;99.90
20045;DHT22;10183;47.808;9.476;2022-11-15T04:35:43;3.70;99.90
20045;DHT22;10183;47.808;9.476;2022-11-15T04:38:10;3.80;99.90
20045;DHT22;10183;47.808;9.476;2022-11-15T04:40:38;3.80;99.90
20045;DHT22;10183;47.808;9.476;2022-11-15T04:43:04;3.70;99.90
20045;DHT22;10183;47.808;9.476;2022-11-15T04:45:30;3.60;99.90
20045;DHT22;10183;47.808;9.476;2022-11-15T04:47:56;3.70;99.90
20045;DHT22;10183;47.808;9.476;2022-11-15T04:50:23;3.70;99.90
20045;DHT22;10183;47.808;9.476;2022-11-15T04:52:53;3.60;99.90
20045;DHT22;10183;47.808;9.476;2022-11-15T04:55:20;3.50;99.90
20045;DHT22;10183;47.808;9.476;2022-11-15T04:57:46;3.60;99.90
20045;DHT22;10183;47.808;9.476;2022-11-15T05:00:14;3.70;99.90
20045;DHT22;10183;47.808;9.476;2022-11-15T05:02:41;3.70;99.90
20045;DHT22;10183;47.808;9.476;2022-11-15T05:05:26;3.80;99.90
20045;DHT22;10183;47.808;9.476;2022-11-15T05:07:52;3.90;99.90
20045;DHT22;10183;47.808;9.476;2022-11-15T05:10:18;3.90;99.90
20045;DHT22;10183;47.808;9.476;2022-11-15T05:12:46;3.90;99.90
20045;DHT22;10183;47.808;9.476;2022-11-15T05:15:12;4.00;99.90
20045;DHT22;10183;47.808;9.476;2022-11-15T05:17:38;4.00;99.90
20045;DHT22;10183;47.808;9.476;2022-11-15T05:20:05;3.90;99.90
20045;DHT22;10183;47.808;9.476;2022-11-15T05:22:31;4.00;99.90
20045;DHT22;10183;47.808;9.476;2022-11-15T05:24:57;4.10;99.90
20045;DHT22;10183;47.808;9.476;2022-11-15T05:27:24;4.00;99.90
20045;DHT22;10183;47.808;9.476;2022-11-15T05:29:50;4.00;99.90
20045;DHT22;10183;47.808;9.476;2022-11-15T05:32:16;4.10;99.90
20045;DHT22;10183;47.808;9.476;2022-11-15T05:34:44;4.10;99.90
20045;DHT22;10183;47.808;9.476;2022-11-15T05:37:10;4.10;99.90
20045;DHT22;10183;47.808;9.476;2022-11-15T05:39:36;4.20;99.90
20045;DHT22;10183;47.808;9.476;2022-11-15T05:42:09;4.20;99.90
20045;DHT22;10183;47.808;9.476;2022-11-15T05:44:37;4.10;99.90
20045;DHT22;10183;47.808;9.476;2022-11-15T05:47:06;3.90;99.90
20045;DHT22;10183;47.808;9.476;2022-11-15T05:49:36;3.80;99.90
20045;DHT22;10183;47.808;9.476;2022-11-15T05:52:06;3.50;99.90
20045;DHT22;10183;47.808;9.476;2022-11-15T05:54:34;3.50;99.90
20045;DHT22;10183;47.808;9.476;2022-11-15T05:57:01;3.40;99.90
20045;DHT22;10183;47.808;9.476;2022-11-15T05:59:31;3.30;99.90
20045;DHT22;10183;47.808;9.476;2022-11-15T06:01:58;3.40;99.90
20045;DHT22;10183;47.808;9.476;2022-11-15T06:04:25;3.30;99.90
20045;DHT22;10183;47.808;9.476;2022-11-15T06:06:51;3.30;99.90
20045;DHT22;10183;47.808;9.476;2022-11-15T06:09:17;3.30;99.90
20045;DHT22;10183;47.808;9.476;2022-11-15T06:11:43;3.30;99.90
20045;DHT22;10183;47.808;9.476;2022-11-15T06:14:09;3.30;99.90
20045;DHT22;10183;47.808;9.476;2022-11-15T06:16:35;3.30;99.90
20045;DHT22;10183;47.808;9.476;2022-11-15T06:19:02;3.20;99.90
20045;DHT22;10183;47.808;9.476;2022-11-15T06:21:28;3.10;99.90
20045;DHT22;10183;47.808;9.476;2022-11-15T06:23:55;3.00;99.90
20045;DHT22;10183;47.808;9.476;2022-11-15T06:26:21;3.00;99.90
20045;DHT22;10183;47.808;9.476;2022-11-15T06:28:47;3.10;99.90
20045;DHT22;10183;47.808;9.476;2022-11-15T06:31:13;3.10;99.90
20045;DHT22;10183;47.808;9.476;2022-11-15T06:33:40;3.20;99.90
20045;DHT22;10183;47.808;9.476;2022-11-15T06:36:09;3.20;99.90
20045;DHT22;10183;47.808;9.476;2022-11-15T06:38:36;3.10;99.90
20045;DHT22;10183;47.808;9.476;2022-11-15T06:41:06;3.00;99.90
20045;DHT22;10183;47.808;9.476;2022-11-15T06:43:34;2.80;99.90
20045;DHT22;10183;47.808;9.476;2022-11-15T06:46:01;2.80;99.90
20045;DHT22;10183;47.808;9.476;2022-11-15T06:48:28;2.70;99.90
20045;DHT22;10183;47.808;9.476;2022-11-15T06:50:59;2.80;99.90
20045;DHT22;10183;47.808;9.476;2022-11-15T06:53:26;2.80;99.90
20045;DHT22;10183;47.808;9.476;2022-11-15T06:55:53;2.80;99.90
20045;DHT22;10183;47.808;9.476;2022-11-15T06:58:21;2.90;99.90
20045;DHT22;10183;47.808;9.476;2022-11-15T07:00:47;3.00;99.90
20045;DHT22;10183;47.808;9.476;2022-11-15T07:03:13;3.00;99.90
20045;DHT22;10183;47.808;9.476;2022-11-15T07:05:39;3.10;99.90
20045;DHT22;10183;47.808;9.476;2022-11-15T07:08:05;3.10;99.90
20045;DHT22;10183;47.808;9.476;2022-11-15T07:10:31;3.20;99.90
20045;DHT22;10183;47.808;9.476;2022-11-15T07:12:58;3.10;99.90
20045;DHT22;10183;47.808;9.476;2022-11-15T07:15:25;3.10;99.90
20045;DHT22;10183;47.808;9.476;2022-11-15T07:17:51;3.10;99.90
20045;DHT22;10183;47.808;9.476;2022-11-15T07:20:18;3.00;99.90
20045;DHT22;10183;47.808;9.476;2022-11-15T07:22:44;3.10;99.90
20045;DHT22;10183;47.808;9.476;2022-11-15T07:25:11;2.90;99.90
20045;DHT22;10183;47.808;9.476;2022-11-15T07:27:37;2.80;99.90
20045;DHT22;10183;47.808;9.476;2022-11-15T07:30:04;2.90;99.90
20045;DHT22;10183;47.808;9.476;2022-11-15T07:32:30;3.00;99.90
20045;DHT22;10183;47.808;9.476;2022-11-15T07:34:57;3.00;99.90
20045;DHT22;10183;47.808;9.476;2022-11-15T07:37:23;3.20;99.90
20045;DHT22;10183;47.808;9.476;2022-11-15T07:39:49;3.10;99.90
20045;DHT22;10183;47.808;9.476;2022-11-15T07:42:15;3.00;99.90
20045;DHT22;10183;47.808;9.476;2022-11-15T07:45:00;3.10;99.90
20045;DHT22;10183;47.808;9.476;2022-11-15T07:47:28;3.20;99.90
20045;DHT22;10183;47.808;9.476;2022-11-15T07:49:54;3.30;99.90
20045;DHT22;10183;47.808;9.476;2022-11-15T07:52:20;3.50;99.90
20045;DHT22;10183;47.808;9.476;2022-11-15T07:54:47;3.60;99.90
20045;DHT22;10183;47.808;9.476;2022-11-15T07:57:13;3.80;99.90
20045;DHT22;10183;47.808;9.476;2022-11-15T07:59:39;3.90;99.90
20045;DHT22;10183;47.808;9.476;2022-11-15T08:02:05;4.10;99.90
20045;DHT22;10183;47.808;9.476;2022-11-15T08:04:31;4.10;99.90
20045;DHT22;10183;47.808;9.476;2022-11-15T08:06:58;4.10;99.90
20045;DHT22;10183;47.808;9.476;2022-11-15T08:09:24;4.20;99.90
20045;DHT22;10183;47.808;9.476;2022-11-15T08:11:50;4.40;99.90
20045;DHT22;10183;47.808;9.476;2022-11-15T08:14:17;4.60;99.90
20045;DHT22;10183;47.808;9.476;2022-11-15T08:16:43;4.70;99.90
20045;DHT22;10183;47.808;9.476;2022-11-15T08:19:09;4.70;99.90
20045;DHT22;10183;47.808;9.476;2022-11-15T08:21:35;4.90;99.90
20045;DHT22;10183;47.808;9.476;2022-11-15T08:24:01;4.90;99.90
20045;DHT22;10183;47.808;9.476;2022-11-15T08:26:27;5.10;99.90
20045;DHT22;10183;47.808;9.476;2022-11-15T08:28:55;5.10;99.90
20045;DHT22;10183;47.808;9.476;2022-11-15T08:31:22;5.30;99.90
20045;DHT22;10183;47.808;9.476;2022-11-15T08:33:48;5.40;99.90
20045;DHT22;10183;47.808;9.476;2022-11-15T08:36:15;5.60;99.90
20045;DHT22;10183;47.808;9.476;2022-11-15T08:38:42;5.90;99.90
20045;DHT22;10183;47.808;9.476;2022-11-15T08:41:14;6.20;99.90
20045;DHT22;10183;47.808;9.476;2022-11-15T08:43:43;6.50;99.90
20045;DHT22;10183;47.808;9.476;2022-11-15T08:46:12;6.70;99.90
20045;DHT22;10183;47.808;9.476;2022-11-15T08:48:38;7.00;99.90
20045;DHT22;10183;47.808;9.476;2022-11-15T08:51:05;7.00;99.90
20045;DHT22;10183;47.808;9.476;2022-11-15T08:53:31;7.10;99.90
20045;DHT22;10183;47.808;9.476;2022-11-15T08:55:58;6.90;99.90
20045;DHT22;10183;47.808;9.476;2022-11-15T08:58:24;7.00;99.90
20045;DHT22;10183;47.808;9.476;2022-11-15T09:00:50;7.10;99.90
20045;DHT22;10183;47.808;9.476;2022-11-15T09:03:16;7.30;99.90
20045;DHT22;10183;47.808;9.476;2022-11-15T09:05:42;7.60;99.90
20045;DHT22;10183;47.808;9.476;2022-11-15T09:08:08;7.80;99.90
20045;DHT22;10183;47.808;9.476;2022-11-15T09:10:34;8.10;99.90
20045;DHT22;10183;47.808;9.476;2022-11-15T09:13:01;8.30;99.90
20045;DHT22;10183;47.808;9.476;2022-11-15T09:15:27;8.50;99.90
20045;DHT22;10183;47.808;9.476;2022-11-15T09:17:53;8.70;99.90
20045;DHT22;10183;47.808;9.476;2022-11-15T09:20:19;8.60;99.90
20045;DHT22;10183;47.808;9.476;2022-11-15T09:22:45;8.50;99.90
20045;DHT22;10183;47.808;9.476;2022-11-15T09:25:12;8.30;99.90
20045;DHT22;10183;47.808;9.476;2022-11-15T09:27:38;8.10;99.90
20045;DHT22;10183;47.808;9.476;2022-11-15T09:30:04;8.30;99.90
20045;DHT22;10183;47.808;9.476;2022-11-15T09:32:31;8.60;99.90
20045;DHT22;10183;47.808;9.476;2022-11-15T09:34:57;8.60;99.90
20045;DHT22;10183;47.808;9.476;2022-11-15T09:37:23;8.90;99.90
20045;DHT22;10183;47.808;9.476;2022-11-15T09:39:50;9.20;99.90
20045;DHT22;10183;47.808;9.476;2022-11-15T09:42:29;9.40;99.90
20045;DHT22;10183;47.808;9.476;2022-11-15T09:50:46;10.10;99.90
20045;DHT22;10183;47.808;9.476;2022-11-15T09:53:26;9.90;99.90
20045;DHT22;10183;47.808;9.476;2022-11-15T09:56:00;9.90;99.90
20045;DHT22;10183;47.808;9.476;2022-11-15T09:58:38;9.40;99.90
20045;DHT22;10183;47.808;9.476;2022-11-15T10:01:12;9.70;99.90
20045;DHT22;10183;47.808;9.476;2022-11-15T10:03:43;9.40;99.90
20045;DHT22;10183;47.808;9.476;2022-11-15T10:06:31;9.90;99.90
20045;DHT22;10183;47.808;9.476;2022-11-15T10:09:13;10.10;99.90
20045;DHT22;10183;47.808;9.476;2022-11-15T10:11:41;9.90;99.90
20045;DHT22;10183;47.808;9.476;2022-11-15T10:14:14;10.00;99.90
20045;DHT22;10183;47.808;9.476;2022-11-15T10:19:39;10.40;99.90
20045;DHT22;10183;47.808;9.476;2022-11-15T10:25:24;10.30;99.90
20045;DHT22;10183;47.808;9.476;2022-11-15T10:28:17;10.60;99.90
20045;DHT22;10183;47.808;9.476;2022-11-15T10:30:49;11.00;99.90
20045;DHT22;10183;47.808;9.476;2022-11-15T10:33:36;11.60;99.90
20045;DHT22;10183;47.808;9.476;2022-11-15T10:41:29;12.20;99.90
20045;DHT22;10183;47.808;9.476;2022-11-15T10:46:27;11.60;99.90
20045;DHT22;10183;47.808;9.476;2022-11-15T10:49:16;12.30;99.90
20045;DHT22;10183;47.808;9.476;2022-11-15T10:51:51;12.30;99.90
20045;DHT22;10183;47.808;9.476;2022-11-15T10:54:30;12.00;99.90
20045;DHT22;10183;47.808;9.476;2022-11-15T10:56:59;12.60;99.90
20045;DHT22;10183;47.808;9.476;2022-11-15T10:59:29;12.30;99.90
20045;DHT22;10183;47.808;9.476;2022-11-15T11:01:56;12.60;99.90
20045;DHT22;10183;47.808;9.476;2022-11-15T11:04:22;12.70;99.90
20045;DHT22;10183;47.808;9.476;2022-11-15T11:06:54;11.90;99.90
20045;DHT22;10183;47.808;9.476;2022-11-15T11:09:36;11.70;99.90
20045;DHT22;10183;47.808;9.476;2022-11-15T11:12:05;11.70;99.90
20045;DHT22;10183;47.808;9.476;2022-11-15T11:14:34;11.60;99.90
20045;DHT22;10183;47.808;9.476;2022-11-15T11:19:59;11.40;99.90
20045;DHT22;10183;47.808;9.476;2022-11-15T11:25:19;10.70;99.90
20045;DHT22;10183;47.808;9.476;2022-11-15T11:33:26;10.40;99.90
20045;DHT22;10183;47.808;9.476;2022-11-15T11:36:05;10.40;99.90
20045;DHT22;10183;47.808;9.476;2022-11-15T11:38:38;10.40;99.90
20045;DHT22;10183;47.808;9.476;2022-11-15T11:46:56;10.10;99.90
20045;DHT22;10183;47.808;9.476;2022-11-15T11:49:45;10.00;99.90
20045;DHT22;10183;47.808;9.476;2022-11-15T12:00:56;10.00;99.90
20045;DHT22;10183;47.808;9.476;2022-11-15T12:03:59;10.20;99.90
20045;DHT22;10183;47.808;9.476;2022-11-15T12:06:33;10.30;99.90
20045;DHT22;10183;47.808;9.476;2022-11-15T12:09:07;10.80;99.90
20045;DHT22;10183;47.808;9.476;2022-11-15T12:14:23;10.90;99.90
20045;DHT22;10183;47.808;9.476;2022-11-15T12:16:51;10.50;99.90
20045;DHT22;10183;47.808;9.476;2022-11-15T12:19:17;10.80;99.90
20045;DHT22;10183;47.808;9.476;2022-11-15T12:22:08;10.80;99.90
20045;DHT22;10183;47.808;9.476;2022-11-15T12:30:16;10.00;99.90
20045;DHT22;10183;47.808;9.476;2022-11-15T12:32:57;10.00;99.90
20045;DHT22;10183;47.808;9.476;2022-11-15T12:35:35;10.10;99.90
20045;DHT22;10183;47.808;9.476;2022-11-15T12:38:03;10.10;99.90
20045;DHT22;10183;47.808;9.476;2022-11-15T12:40:37;10.30;99.90
20045;DHT22;10183;47.808;9.476;2022-11-15T12:43:10;10.40;99.90
20045;DHT22;10183;47.808;9.476;2022-11-15T12:45:50;10.10;99.90
20045;DHT22;10183;47.808;9.476;2022-11-15T12:50:55;10.10;99.90
20045;DHT22;10183;47.808;9.476;2022-11-15T12:58:51;10.10;99.90
20045;DHT22;10183;47.808;9.476;2022-11-15T13:07:03;10.20;99.90
20045;DHT22;10183;47.808;9.476;2022-11-15T13:14:55;10.60;99.90
20045;DHT22;10183;47.808;9.476;2022-11-15T13:17:24;10.60;99.90
20045;DHT22;10183;47.808;9.476;2022-11-15T13:22:42;10.60;99.90
20045;DHT22;10183;47.808;9.476;2022-11-15T13:25:47;10.50;99.90
20045;DHT22;10183;47.808;9.476;2022-11-15T13:33:35;10.90;99.90
20045;DHT22;10183;47.808;9.476;2022-11-15T13:36:23;10.60;99.90
20045;DHT22;10183;47.808;9.476;2022-11-15T13:39:05;10.40;99.90
20045;DHT22;10183;47.808;9.476;2022-11-15T13:41:33;10.40;99.90
20045;DHT22;10183;47.808;9.476;2022-11-15T13:44:01;10.20;99.90
20045;DHT22;10183;47.808;9.476;2022-11-15T13:46:30;10.10;99.90
20045;DHT22;10183;47.808;9.476;2022-11-15T13:49:09;10.00;99.90
20045;DHT22;10183;47.808;9.476;2022-11-15T13:51:50;10.10;99.90
20045;DHT22;10183;47.808;9.476;2022-11-15T13:56:48;10.00;99.90
20045;DHT22;10183;47.808;9.476;2022-11-15T13:59:37;9.90;99.90
20045;DHT22;10183;47.808;9.476;2022-11-15T14:02:18;9.70;99.90
20045;DHT22;10183;47.808;9.476;2022-11-15T14:04:49;9.80;99.90
20045;DHT22;10183;47.808;9.476;2022-11-15T14:07:18;9.90;99.90
20045;DHT22;10183;47.808;9.476;2022-11-15T14:09:46;10.00;99.90
20045;DHT22;10183;47.808;9.476;2022-11-15T14:12:33;9.60;99.90
20045;DHT22;10183;47.808;9.476;2022-11-15T14:15:18;9.40;99.90
20045;DHT22;10183;47.808;9.476;2022-11-15T14:17:44;9.30;99.90
20045;DHT22;10183;47.808;9.476;2022-11-15T14:22:58;9.40;99.90
20045;DHT22;10183;47.808;9.476;2022-11-15T14:25:33;9.30;99.90
20045;DHT22;10183;47.808;9.476;2022-11-15T14:28:13;9.20;99.90
20045;DHT22;10183;47.808;9.476;2022-11-15T14:30:42;9.10;99.90
20045;DHT22;10183;47.808;9.476;2022-11-15T14:33:32;8.90;99.90
20045;DHT22;10183;47.808;9.476;2022-11-15T14:36:15;8.70;99.90
20045;DHT22;10183;47.808;9.476;2022-11-15T14:38:42;8.50;99.90
20045;DHT22;10183;47.808;9.476;2022-11-15T14:41:20;8.50;99.90
20045;DHT22;10183;47.808;9.476;2022-11-15T14:43:50;8.60;99.90
20045;DHT22;10183;47.808;9.476;2022-11-15T14:46:17;8.70;99.90
20045;DHT22;10183;47.808;9.476;2022-11-15T14:48:43;8.80;99.90
20045;DHT22;10183;47.808;9.476;2022-11-15T14:51:15;8.70;99.90
20045;DHT22;10183;47.808;9.476;2022-11-15T14:53:42;8.70;99.90
20045;DHT22;10183;47.808;9.476;2022-11-15T14:56:09;8.60;99.90
20045;DHT22;10183;47.808;9.476;2022-11-15T14:58:36;8.70;99.90
20045;DHT22;10183;47.808;9.476;2022-11-15T15:01:25;8.70;99.90
20045;DHT22;10183;47.808;9.476;2022-11-15T15:03:53;8.80;99.90
20045;DHT22;10183;47.808;9.476;2022-11-15T15:06:22;8.80;99.90
20045;DHT22;10183;47.808;9.476;2022-11-15T15:08:48;8.90;99.90
20045;DHT22;10183;47.808;9.476;2022-11-15T15:13:47;8.60;99.90
20045;DHT22;10183;47.808;9.476;2022-11-15T15:16:14;8.60;99.90
20045;DHT22;10183;47.808;9.476;2022-11-15T15:18:40;8.70;99.90
20045;DHT22;10183;47.808;9.476;2022-11-15T15:21:23;8.80;99.90
20045;DHT22;10183;47.808;9.476;2022-11-15T15:23:50;8.80;99.90
20045;DHT22;10183;47.808;9.476;2022-11-15T15:26:17;8.80;99.90
20045;DHT22;10183;47.808;9.476;2022-11-15T15:28:43;8.90;99.90
20045;DHT22;10183;47.808;9.476;2022-11-15T15:31:11;8.90;99.90
20045;DHT22;10183;47.808;9.476;2022-11-15T15:33:39;8.70;99.90
20045;DHT22;10183;47.808;9.476;2022-11-15T15:36:10;8.70;99.90
20045;DHT22;10183;47.808;9.476;2022-11-15T15:38:36;8.70;99.90
20045;DHT22;10183;47.808;9.476;2022-11-15T15:41:03;8.70;99.90
20045;DHT22;10183;47.808;9.476;2022-11-15T15:43:30;8.50;99.90
20045;DHT22;10183;47.808;9.476;2022-11-15T15:45:59;8.50;99.90
20045;DHT22;10183;47.808;9.476;2022-11-15T15:48:25;8.50;99.90
20045;DHT22;10183;47.808;9.476;2022-11-15T15:50:51;8.50;99.90
20045;DHT22;10183;47.808;9.476;2022-11-15T15:53:18;8.40;99.90
20045;DHT22;10183;47.808;9.476;2022-11-15T15:55:44;8.50;99.90
20045;DHT22;10183;47.808;9.476;2022-11-15T15:58:10;8.50;99.90
20045;DHT22;10183;47.808;9.476;2022-11-15T16:00:37;8.40;99.90
20045;DHT22;10183;47.808;9.476;2022-11-15T16:03:04;8.40;99.90
20045;DHT22;10183;47.808;9.476;2022-11-15T16:05:30;8.40;99.90
20045;DHT22;10183;47.808;9.476;2022-11-15T16:07:57;8.40;99.90
20045;DHT22;10183;47.808;9.476;2022-11-15T16:10:29;8.40;99.90
20045;DHT22;10183;47.808;9.476;2022-11-15T16:12:56;8.40;99.90
20045;DHT22;10183;47.808;9.476;2022-11-15T16:15:24;8.30;99.90
20045;DHT22;10183;47.808;9.476;2022-11-15T16:17:53;8.40;99.90
20045;DHT22;10183;47.808;9.476;2022-11-15T16:20:39;8.30;99.90
20045;DHT22;10183;47.808;9.476;2022-11-15T16:23:08;8.30;99.90
20045;DHT22;10183;47.808;9.476;2022-11-15T16:25:41;8.30;99.90
20045;DHT22;10183;47.808;9.476;2022-11-15T16:28:21;8.30;99.90
20045;DHT22;10183;47.808;9.476;2022-11-15T16:30:48;8.30;99.90
20045;DHT22;10183;47.808;9.476;2022-11-15T16:33:15;8.30;99.90
20045;DHT22;10183;47.808;9.476;2022-11-15T16:35:43;8.30;99.90
20045;DHT22;10183;47.808;9.476;2022-11-15T16:38:14;8.30;99.90
20045;DHT22;10183;47.808;9.476;2022-11-15T16:40:41;8.30;99.90
20045;DHT22;10183;47.808;9.476;2022-11-15T16:43:07;8.30;99.90
20045;DHT22;10183;47.808;9.476;2022-11-15T16:45:34;8.20;99.90
20045;DHT22;10183;47.808;9.476;2022-11-15T16:48:00;8.20;99.90
20045;DHT22;10183;47.808;9.476;2022-11-15T16:50:29;8.10;99.90
20045;DHT22;10183;47.808;9.476;2022-11-15T16:52:57;8.10;99.90
20045;DHT22;10183;47.808;9.476;2022-11-15T16:55:28;8.10;99.90
20045;DHT22;10183;47.808;9.476;2022-11-15T16:57:55;8.00;99.90
20045;DHT22;10183;47.808;9.476;2022-11-15T17:00:24;7.90;99.90
20045;DHT22;10183;47.808;9.476;2022-11-15T17:02:52;7.80;99.90
20045;DHT22;10183;47.808;9.476;2022-11-15T17:05:21;7.60;99.90
20045;DHT22;10183;47.808;9.476;2022-11-15T17:07:49;7.60;99.90
20045;DHT22;10183;47.808;9.476;2022-11-15T17:10:23;7.60;99.90
20045;DHT22;10183;47.808;9.476;2022-11-15T17:12:51;7.70;99.90
20045;DHT22;10183;47.808;9.476;2022-11-15T17:15:18;7.70;99.90
20045;DHT22;10183;47.808;9.476;2022-11-15T17:17:52;7.70;99.90
20045;DHT22;10183;47.808;9.476;2022-11-15T17:20:21;7.70;99.90
20045;DHT22;10183;47.808;9.476;2022-11-15T17:22:48;7.80;99.90
20045;DHT22;10183;47.808;9.476;2022-11-15T17:25:14;7.80;99.90
20045;DHT22;10183;47.808;9.476;2022-11-15T17:27:40;7.70;99.90
20045;DHT22;10183;47.808;9.476;2022-11-15T17:30:08;7.70;99.90
20045;DHT22;10183;47.808;9.476;2022-11-15T17:32:35;7.60;99.90
20045;DHT22;10183;47.808;9.476;2022-11-15T17:35:03;7.60;99.90
20045;DHT22;10183;47.808;9.476;2022-11-15T17:37:32;7.60;99.90
20045;DHT22;10183;47.808;9.476;2022-11-15T17:39:58;7.50;99.90
20045;DHT22;10183;47.808;9.476;2022-11-15T17:42:25;7.50;99.90
20045;DHT22;10183;47.808;9.476;2022-11-15T17:44:52;7.50;99.90
20045;DHT22;10183;47.808;9.476;2022-11-15T17:47:18;7.50;99.90
20045;DHT22;10183;47.808;9.476;2022-11-15T17:49:44;7.50;99.90
20045;DHT22;10183;47.808;9.476;2022-11-15T17:52:12;7.50;99.90
20045;DHT22;10183;47.808;9.476;2022-11-15T17:54:40;7.50;99.90
20045;DHT22;10183;47.808;9.476;2022-11-15T17:57:07;7.60;99.90
20045;DHT22;10183;47.808;9.476;2022-11-15T17:59:33;7.60;99.90
20045;DHT22;10183;47.808;9.476;2022-11-15T18:01:59;7.70;99.90
20045;DHT22;10183;47.808;9.476;2022-11-15T18:04:26;7.70;99.90